sensor_id;sensor_type;location;lat;lon;timestamp;pressure;altitude;pressure_sealevel;temperature;humidity
16120;BME280;12670;53.502;10.252;2023-07-22T00:01:45;100750.28;;;15.73;100.00
16120;BME280;12670;53.502;10.252;2023-07-22T00:04:47;100747.22;;;15.80;100.00
16120;BME280;12670;53.502;10.252;2023-07-22T00:07:50;100738.28;;;15.66;100.00
16120;BME280;12670;53.502;10.252;2023-07-22T00:10:54;100741.91;;;15.65;100.00
16120;BME280;12670;53.502;10.252;2023-07-22T00:13:57;100743.41;;;15.55;100.00
16120;BME280;12670;53.502;10.252;2023-07-22T00:17:00;100742.84;;;15.64;100.00
16120;BME280;12670;53.502;10.252;2023-07-22T00:20:03;100742.22;;;15.59;100.00
16120;BME280;12670;53.502;10.252;2023-07-22T00:23:07;100744.06;;;15.44;100.00
16120;BME280;12670;53.502;10.252;2023-07-22T00:26:13;100742.34;;;15.43;100.00
16120;BME280;12670;53.502;10.252;2023-07-22T00:29:15;100747.59;;;15.45;100.00
16120;BME280;12670;53.502;10.252;2023-07-22T00:32:18;100741.47;;;15.57;100.00
16120;BME280;12670;53.502;10.252;2023-07-22T00:35:21;100748.75;;;15.55;100.00
16120;BME280;12670;53.502;10.252;2023-07-22T00:38:23;100751.00;;;15.47;100.00
16120;BME280;12670;53.502;10.252;2023-07-22T00:41:28;100747.97;;;15.53;100.00
16120;BME280;12670;53.502;10.252;2023-07-22T00:44:31;100751.59;;;15.52;100.00
16120;BME280;12670;53.502;10.252;2023-07-22T00:47:34;100752.44;;;15.53;100.00
16120;BME280;12670;53.502;10.252;2023-07-22T00:50:38;100749.50;;;15.57;100.00
16120;BME280;12670;53.502;10.252;2023-07-22T00:53:41;100742.91;;;15.49;100.00
16120;BME280;12670;53.502;10.252;2023-07-22T00:56:47;100745.69;;;15.61;100.00
16120;BME280;12670;53.502;10.252;2023-07-22T00:59:50;100738.28;;;15.66;100.00
16120;BME280;12670;53.502;10.252;2023-07-22T01:02:52;100738.03;;;15.41;100.00
16120;BME280;12670;53.502;10.252;2023-07-22T01:05:56;100742.63;;;15.53;100.00
16120;BME280;12670;53.502;10.252;2023-07-22T01:09:00;100742.06;;;15.48;100.00
16120;BME280;12670;53.502;10.252;2023-07-22T01:12:04;100743.78;;;15.63;100.00
16120;BME280;12670;53.502;10.252;2023-07-22T01:15:08;100737.09;;;15.56;100.00
16120;BME280;12670;53.502;10.252;2023-07-22T01:18:11;100729.63;;;15.61;100.00
16120;BME280;12670;53.502;10.252;2023-07-22T01:21:14;100729.75;;;15.60;100.00
16120;BME280;12670;53.502;10.252;2023-07-22T01:24:18;100736.88;;;15.59;100.00
16120;BME280;12670;53.502;10.252;2023-07-22T01:27:21;100736.34;;;15.68;100.00
16120;BME280;12670;53.502;10.252;2023-07-22T01:30:24;100732.69;;;15.41;100.00
16120;BME280;12670;53.502;10.252;2023-07-22T01:33:28;100740.34;;;15.61;100.00
16120;BME280;12670;53.502;10.252;2023-07-22T01:36:31;100737.66;;;15.47;100.00
16120;BME280;12670;53.502;10.252;2023-07-22T01:39:35;100735.38;;;15.55;100.00
16120;BME280;12670;53.502;10.252;2023-07-22T01:42:38;100735.16;;;15.58;100.00
16120;BME280;12670;53.502;10.252;2023-07-22T01:45:41;100731.75;;;15.42;100.00
16120;BME280;12670;53.502;10.252;2023-07-22T01:48:44;100725.16;;;15.33;100.00
16120;BME280;12670;53.502;10.252;2023-07-22T01:51:46;100729.97;;;15.12;100.00
16120;BME280;12670;53.502;10.252;2023-07-22T01:54:50;100735.91;;;15.17;100.00
16120;BME280;12670;53.502;10.252;2023-07-22T01:57:53;100727.13;;;15.15;100.00
16120;BME280;12670;53.502;10.252;2023-07-22T02:00:56;100735.25;;;15.14;100.00
16120;BME280;12670;53.502;10.252;2023-07-22T02:03:59;100723.34;;;15.19;100.00
16120;BME280;12670;53.502;10.252;2023-07-22T02:07:02;100726.22;;;15.31;100.00
16120;BME280;12670;53.502;10.252;2023-07-22T02:10:07;100721.25;;;15.25;100.00
16120;BME280;12670;53.502;10.252;2023-07-22T02:13:11;100720.00;;;15.30;100.00
16120;BME280;12670;53.502;10.252;2023-07-22T02:16:13;100732.78;;;15.25;100.00
16120;BME280;12670;53.502;10.252;2023-07-22T02:19:18;100723.34;;;15.19;100.00
16120;BME280;12670;53.502;10.252;2023-07-22T02:22:20;100726.28;;;15.29;100.00
16120;BME280;12670;53.502;10.252;2023-07-22T02:25:24;100730.19;;;15.24;100.00
16120;BME280;12670;53.502;10.252;2023-07-22T02:28:27;100730.19;;;15.24;100.00
16120;BME280;12670;53.502;10.252;2023-07-22T02:31:30;100739.38;;;15.19;100.00
16120;BME280;12670;53.502;10.252;2023-07-22T02:34:32;100733.34;;;15.16;100.00
16120;BME280;12670;53.502;10.252;2023-07-22T02:37:37;100743.34;;;15.12;100.00
16120;BME280;12670;53.502;10.252;2023-07-22T02:40:41;100746.00;;;15.12;100.00
16120;BME280;12670;53.502;10.252;2023-07-22T02:43:44;100741.63;;;15.11;100.00
16120;BME280;12670;53.502;10.252;2023-07-22T02:46:47;100736.47;;;15.08;100.00
16120;BME280;12670;53.502;10.252;2023-07-22T02:49:50;100745.47;;;15.07;100.00
16120;BME280;12670;53.502;10.252;2023-07-22T02:52:52;100730.66;;;15.02;100.00
16120;BME280;12670;53.502;10.252;2023-07-22T02:55:56;100731.03;;;14.96;100.00
16120;BME280;12670;53.502;10.252;2023-07-22T02:58:59;100741.72;;;14.96;100.00
16120;BME280;12670;53.502;10.252;2023-07-22T03:02:02;100742.34;;;14.85;100.00
16120;BME280;12670;53.502;10.252;2023-07-22T03:05:07;100751.53;;;14.95;100.00
16120;BME280;12670;53.502;10.252;2023-07-22T03:08:10;100744.28;;;14.97;100.00
16120;BME280;12670;53.502;10.252;2023-07-22T03:11:14;100745.41;;;14.93;100.00
16120;BME280;12670;53.502;10.252;2023-07-22T03:14:18;100747.69;;;14.85;100.00
16120;BME280;12670;53.502;10.252;2023-07-22T03:17:22;100749.78;;;14.94;100.00
16120;BME280;12670;53.502;10.252;2023-07-22T03:20:25;100744.91;;;14.86;100.00
16120;BME280;12670;53.502;10.252;2023-07-22T03:23:28;100749.53;;;14.99;100.00
16120;BME280;12670;53.502;10.252;2023-07-22T03:26:32;100760.03;;;15.02;100.00
16120;BME280;12670;53.502;10.252;2023-07-22T03:29:35;100759.00;;;15.04;100.00
16120;BME280;12670;53.502;10.252;2023-07-22T03:32:37;100754.78;;;15.00;100.00
16120;BME280;12670;53.502;10.252;2023-07-22T03:35:40;100752.31;;;14.97;100.00
16120;BME280;12670;53.502;10.252;2023-07-22T03:38:43;100764.31;;;14.90;100.00
16120;BME280;12670;53.502;10.252;2023-07-22T03:41:47;100776.34;;;14.97;100.00
16120;BME280;12670;53.502;10.252;2023-07-22T03:44:49;100778.59;;;14.89;100.00
16120;BME280;12670;53.502;10.252;2023-07-22T03:47:55;100768.22;;;14.99;100.00
16120;BME280;12670;53.502;10.252;2023-07-22T03:50:58;100772.91;;;14.95;100.00
16120;BME280;12670;53.502;10.252;2023-07-22T03:54:19;100773.03;;;15.08;100.00
16120;BME280;12670;53.502;10.252;2023-07-22T03:57:26;100775.06;;;15.18;100.00
16120;BME280;12670;53.502;10.252;2023-07-22T04:00:30;100772.66;;;15.14;100.00
16120;BME280;12670;53.502;10.252;2023-07-22T04:03:33;100772.41;;;15.18;100.00
16120;BME280;12670;53.502;10.252;2023-07-22T04:06:36;100772.09;;;15.23;100.00
16120;BME280;12670;53.502;10.252;2023-07-22T04:09:39;100771.59;;;15.16;100.00
16120;BME280;12670;53.502;10.252;2023-07-22T04:12:43;100774.50;;;15.28;100.00
16120;BME280;12670;53.502;10.252;2023-07-22T04:15:46;100775.78;;;15.06;100.00
16120;BME280;12670;53.502;10.252;2023-07-22T04:18:48;100776.31;;;15.13;100.00
16120;BME280;12670;53.502;10.252;2023-07-22T04:21:51;100774.09;;;15.19;100.00
16120;BME280;12670;53.502;10.252;2023-07-22T04:24:54;100780.91;;;15.25;100.00
16120;BME280;12670;53.502;10.252;2023-07-22T04:27:58;100792.94;;;15.32;100.00
16120;BME280;12670;53.502;10.252;2023-07-22T04:31:01;100792.06;;;15.32;100.00
16120;BME280;12670;53.502;10.252;2023-07-22T04:34:04;100783.63;;;15.24;100.00
16120;BME280;12670;53.502;10.252;2023-07-22T04:37:06;100791.28;;;15.30;100.00
16120;BME280;12670;53.502;10.252;2023-07-22T04:40:11;100781.88;;;15.38;100.00
16120;BME280;12670;53.502;10.252;2023-07-22T04:43:17;100789.59;;;15.43;100.00
16120;BME280;12670;53.502;10.252;2023-07-22T04:46:23;100800.47;;;15.40;100.00
16120;BME280;12670;53.502;10.252;2023-07-22T04:49:27;77363.66;;;15.40;100.00
16120;BME280;12670;53.502;10.252;2023-07-22T04:52:30;99044.16;;;15.53;100.00
16120;BME280;12670;53.502;10.252;2023-07-22T04:55:33;100811.38;;;15.51;100.00
16120;BME280;12670;53.502;10.252;2023-07-22T04:58:37;100811.75;;;15.59;100.00
16120;BME280;12670;53.502;10.252;2023-07-22T05:01:40;100815.22;;;15.61;100.00
16120;BME280;12670;53.502;10.252;2023-07-22T05:04:43;100814.59;;;15.72;100.00
16120;BME280;12670;53.502;10.252;2023-07-22T05:07:45;100823.72;;;15.54;100.00
16120;BME280;12670;53.502;10.252;2023-07-22T05:10:50;100819.16;;;15.70;100.00
16120;BME280;12670;53.502;10.252;2023-07-22T05:13:54;100819.84;;;15.73;100.00
16120;BME280;12670;53.502;10.252;2023-07-22T05:16:56;100825.97;;;15.90;100.00
16120;BME280;12670;53.502;10.252;2023-07-22T05:19:59;100835.50;;;15.65;100.00
16120;BME280;12670;53.502;10.252;2023-07-22T05:23:02;100834.38;;;15.84;100.00
16120;BME280;12670;53.502;10.252;2023-07-22T05:26:04;100836.53;;;15.77;100.00
16120;BME280;12670;53.502;10.252;2023-07-22T05:29:08;100838.19;;;15.80;100.00
16120;BME280;12670;53.502;10.252;2023-07-22T05:32:11;100843.72;;;15.91;100.00
16120;BME280;12670;53.502;10.252;2023-07-22T05:35:33;100847.53;;;15.87;100.00
16120;BME280;12670;53.502;10.252;2023-07-22T05:38:35;100840.66;;;15.97;100.00
16120;BME280;12670;53.502;10.252;2023-07-22T05:41:38;100852.72;;;15.90;100.00
16120;BME280;12670;53.502;10.252;2023-07-22T05:44:43;100854.06;;;15.97;100.00
16120;BME280;12670;53.502;10.252;2023-07-22T05:47:46;100854.69;;;16.29;100.00
16120;BME280;12670;53.502;10.252;2023-07-22T05:50:49;100855.19;;;16.21;100.00
16120;BME280;12670;53.502;10.252;2023-07-22T05:53:51;58407.00;;;-145.15;100.00
16120;BME280;12670;53.502;10.252;2023-07-22T05:56:54;100858.72;;;16.22;100.00
16120;BME280;12670;53.502;10.252;2023-07-22T05:59:58;100855.00;;;15.96;100.00
16120;BME280;12670;53.502;10.252;2023-07-22T06:03:04;100857.38;;;16.15;100.00
16120;BME280;12670;53.502;10.252;2023-07-22T06:06:06;100858.22;;;16.30;100.00
16120;BME280;12670;53.502;10.252;2023-07-22T06:09:10;100863.84;;;16.39;100.00
16120;BME280;12670;53.502;10.252;2023-07-22T06:12:13;100858.66;;;16.50;100.00
16120;BME280;12670;53.502;10.252;2023-07-22T06:15:17;100863.38;;;16.33;100.00
16120;BME280;12670;53.502;10.252;2023-07-22T06:18:19;100872.13;;;16.63;100.00
16120;BME280;12670;53.502;10.252;2023-07-22T06:21:22;100877.69;;;16.60;100.00
16120;BME280;12670;53.502;10.252;2023-07-22T06:24:25;100872.22;;;16.62;100.00
16120;BME280;12670;53.502;10.252;2023-07-22T06:27:27;100866.22;;;16.72;100.00
16120;BME280;12670;53.502;10.252;2023-07-22T06:30:32;100872.22;;;16.62;100.00
16120;BME280;12670;53.502;10.252;2023-07-22T06:33:34;100871.16;;;16.78;100.00
16120;BME280;12670;53.502;10.252;2023-07-22T06:36:37;100868.47;;;16.78;100.00
16120;BME280;12670;53.502;10.252;2023-07-22T06:39:40;100877.09;;;16.84;100.00
16120;BME280;12670;53.502;10.252;2023-07-22T06:42:43;100870.50;;;17.02;100.00
16120;BME280;12670;53.502;10.252;2023-07-22T06:45:47;100871.19;;;17.18;100.00
16120;BME280;12670;53.502;10.252;2023-07-22T06:48:49;100875.50;;;17.33;100.00
16120;BME280;12670;53.502;10.252;2023-07-22T06:51:52;100880.75;;;17.22;100.00
16120;BME280;12670;53.502;10.252;2023-07-22T06:54:55;100879.75;;;17.23;100.00
16120;BME280;12670;53.502;10.252;2023-07-22T06:57:57;100870.38;;;17.30;100.00
16120;BME280;12670;53.502;10.252;2023-07-22T07:01:02;100877.63;;;17.28;100.00
16120;BME280;12670;53.502;10.252;2023-07-22T07:04:05;100878.78;;;17.12;100.00
16120;BME280;12670;53.502;10.252;2023-07-22T07:07:08;100881.09;;;17.30;100.00
16120;BME280;12670;53.502;10.252;2023-07-22T07:10:10;100883.56;;;17.33;100.00
16120;BME280;12670;53.502;10.252;2023-07-22T07:13:13;100876.00;;;17.66;100.00
16120;BME280;12670;53.502;10.252;2023-07-22T07:16:21;100882.22;;;17.66;100.00
16120;BME280;12670;53.502;10.252;2023-07-22T07:19:26;100885.66;;;17.68;100.00
16120;BME280;12670;53.502;10.252;2023-07-22T07:22:29;100887.78;;;17.63;100.00
16120;BME280;12670;53.502;10.252;2023-07-22T07:25:31;100887.41;;;17.29;100.00
16120;BME280;12670;53.502;10.252;2023-07-22T07:28:34;100895.38;;;17.31;100.00
16120;BME280;12670;53.502;10.252;2023-07-22T07:31:38;100894.75;;;17.53;100.00
16120;BME280;12670;53.502;10.252;2023-07-22T07:34:41;100886.72;;;17.66;100.00
16120;BME280;12670;53.502;10.252;2023-07-22T07:37:43;100897.75;;;17.48;100.00
16120;BME280;12670;53.502;10.252;2023-07-22T07:40:46;100903.00;;;17.90;100.00
16120;BME280;12670;53.502;10.252;2023-07-22T07:43:49;100904.69;;;17.78;100.00
16120;BME280;12670;53.502;10.252;2023-07-22T07:46:53;100905.56;;;17.91;100.00
16120;BME280;12670;53.502;10.252;2023-07-22T07:49:56;100910.81;;;17.80;100.00
16120;BME280;12670;53.502;10.252;2023-07-22T07:52:58;100915.13;;;17.82;100.00
16120;BME280;12670;53.502;10.252;2023-07-22T07:56:01;100914.16;;;17.83;100.00
16120;BME280;12670;53.502;10.252;2023-07-22T07:59:04;100919.00;;;17.51;100.00
16120;BME280;12670;53.502;10.252;2023-07-22T08:02:11;100932.66;;;17.61;100.00
16120;BME280;12670;53.502;10.252;2023-07-22T08:05:14;100940.56;;;17.77;100.00
16120;BME280;12670;53.502;10.252;2023-07-22T08:08:17;100928.00;;;17.77;100.00
16120;BME280;12670;53.502;10.252;2023-07-22T08:11:20;100939.78;;;17.88;100.00
16120;BME280;12670;53.502;10.252;2023-07-22T08:14:23;100928.44;;;17.84;100.00
16120;BME280;12670;53.502;10.252;2023-07-22T08:17:27;100929.72;;;17.78;100.00
16120;BME280;12670;53.502;10.252;2023-07-22T08:20:30;100926.72;;;17.56;100.00
16120;BME280;12670;53.502;10.252;2023-07-22T08:23:33;100935.63;;;17.44;100.00
16120;BME280;12670;53.502;10.252;2023-07-22T08:26:36;100928.59;;;17.68;100.00
16120;BME280;12670;53.502;10.252;2023-07-22T08:29:38;100933.94;;;17.68;100.00
16120;BME280;12670;53.502;10.252;2023-07-22T08:32:42;100923.25;;;17.94;100.00
16120;BME280;12670;53.502;10.252;2023-07-22T08:35:45;100924.78;;;18.10;100.00
16120;BME280;12670;53.502;10.252;2023-07-22T08:38:49;100930.13;;;18.49;100.00
16120;BME280;12670;53.502;10.252;2023-07-22T08:41:52;100936.09;;;18.52;99.52
16120;BME280;12670;53.502;10.252;2023-07-22T08:45:01;100931.34;;;18.19;100.00
16120;BME280;12670;53.502;10.252;2023-07-22T08:48:06;100932.72;;;18.37;100.00
16120;BME280;12670;53.502;10.252;2023-07-22T08:51:15;100934.97;;;18.31;97.05
16120;BME280;12670;53.502;10.252;2023-07-22T08:54:19;100927.97;;;18.54;95.60
16120;BME280;12670;53.502;10.252;2023-07-22T08:57:23;100937.41;;;18.72;96.47
16120;BME280;12670;53.502;10.252;2023-07-22T09:00:29;100929.50;;;18.95;92.41
16120;BME280;12670;53.502;10.252;2023-07-22T09:03:33;100933.28;;;18.79;94.67
16120;BME280;12670;53.502;10.252;2023-07-22T09:06:36;100937.09;;;19.01;90.66
16120;BME280;12670;53.502;10.252;2023-07-22T09:09:39;100931.38;;;19.29;88.98
16120;BME280;12670;53.502;10.252;2023-07-22T09:12:43;100936.81;;;19.16;87.29
16120;BME280;12670;53.502;10.252;2023-07-22T09:15:46;100933.03;;;19.43;83.88
16120;BME280;12670;53.502;10.252;2023-07-22T09:18:54;100934.56;;;19.34;86.71
16120;BME280;12670;53.502;10.252;2023-07-22T09:21:57;100937.34;;;19.57;83.63
16120;BME280;12670;53.502;10.252;2023-07-22T09:25:17;100938.22;;;19.33;84.35
16120;BME280;12670;53.502;10.252;2023-07-22T09:28:20;100939.38;;;19.66;78.20
16120;BME280;12670;53.502;10.252;2023-07-22T09:31:25;100927.69;;;19.89;75.56
16120;BME280;12670;53.502;10.252;2023-07-22T09:34:30;100930.44;;;20.12;74.46
16120;BME280;12670;53.502;10.252;2023-07-22T09:37:37;100925.63;;;20.15;75.25
16120;BME280;12670;53.502;10.252;2023-07-22T09:40:41;100915.38;;;20.54;86.21
16120;BME280;12670;53.502;10.252;2023-07-22T09:43:46;100921.47;;;20.45;70.26
16120;BME280;12670;53.502;10.252;2023-07-22T09:46:49;100923.56;;;20.30;73.42
16120;BME280;12670;53.502;10.252;2023-07-22T09:49:54;100920.66;;;20.56;75.38
16120;BME280;12670;53.502;10.252;2023-07-22T09:52:57;100926.03;;;20.67;75.99
16120;BME280;12670;53.502;10.252;2023-07-22T09:56:03;100920.44;;;21.02;69.14
16120;BME280;12670;53.502;10.252;2023-07-22T09:59:06;100922.56;;;20.87;66.72
16120;BME280;12670;53.502;10.252;2023-07-22T10:02:11;100918.81;;;20.56;71.96
16120;BME280;12670;53.502;10.252;2023-07-22T10:05:15;100911.78;;;20.87;72.84
16120;BME280;12670;53.502;10.252;2023-07-22T10:08:21;100919.63;;;21.22;68.77
16120;BME280;12670;53.502;10.252;2023-07-22T10:11:27;100908.72;;;21.56;66.10
16120;BME280;12670;53.502;10.252;2023-07-22T10:14:31;100916.75;;;21.46;64.08
16120;BME280;12670;53.502;10.252;2023-07-22T10:17:39;100917.91;;;21.65;64.80
16120;BME280;12670;53.502;10.252;2023-07-22T10:20:44;100904.88;;;21.06;64.99
16120;BME280;12670;53.502;10.252;2023-07-22T10:23:48;100908.09;;;21.64;68.90
16120;BME280;12670;53.502;10.252;2023-07-22T10:26:51;100903.94;;;21.60;64.91
16120;BME280;12670;53.502;10.252;2023-07-22T10:29:55;100910.03;;;21.41;62.58
16120;BME280;12670;53.502;10.252;2023-07-22T10:32:57;100907.63;;;21.59;62.49
16120;BME280;12670;53.502;10.252;2023-07-22T10:36:06;100910.81;;;22.15;62.63
16120;BME280;12670;53.502;10.252;2023-07-22T10:39:24;100912.47;;;22.06;59.77
16120;BME280;12670;53.502;10.252;2023-07-22T10:42:31;100912.50;;;21.65;62.40
16120;BME280;12670;53.502;10.252;2023-07-22T10:45:41;100913.50;;;21.64;61.36
16120;BME280;12670;53.502;10.252;2023-07-22T10:48:44;100911.88;;;22.03;62.13
16120;BME280;12670;53.502;10.252;2023-07-22T10:51:49;100918.91;;;22.86;64.82
16120;BME280;12670;53.502;10.252;2023-07-22T10:54:52;100916.34;;;22.44;58.29
16120;BME280;12670;53.502;10.252;2023-07-22T10:58:04;100908.06;;;22.05;59.67
16120;BME280;12670;53.502;10.252;2023-07-22T11:01:24;100909.00;;;22.46;59.08
16120;BME280;12670;53.502;10.252;2023-07-22T11:04:32;100917.88;;;23.18;54.94
16120;BME280;12670;53.502;10.252;2023-07-22T11:08:03;100913.59;;;22.75;54.05
16120;BME280;12670;53.502;10.252;2023-07-22T11:11:06;100908.28;;;22.94;56.63
16120;BME280;12670;53.502;10.252;2023-07-22T11:14:16;100909.00;;;22.96;53.42
16120;BME280;12670;53.502;10.252;2023-07-22T11:17:28;100906.28;;;22.96;55.87
16120;BME280;12670;53.502;10.252;2023-07-22T11:20:31;100907.47;;;23.23;59.00
16120;BME280;12670;53.502;10.252;2023-07-22T11:23:37;100903.44;;;22.88;55.32
16120;BME280;12670;53.502;10.252;2023-07-22T11:26:40;100902.78;;;22.75;54.51
16120;BME280;12670;53.502;10.252;2023-07-22T11:29:48;100900.53;;;22.80;51.36
16120;BME280;12670;53.502;10.252;2023-07-22T11:32:51;100898.47;;;22.62;54.09
16120;BME280;12670;53.502;10.252;2023-07-22T11:35:53;100903.38;;;21.87;56.33
16120;BME280;12670;53.502;10.252;2023-07-22T11:39:02;100892.91;;;22.14;60.28
16120;BME280;12670;53.502;10.252;2023-07-22T11:42:06;100891.44;;;22.81;56.60
16120;BME280;12670;53.502;10.252;2023-07-22T11:45:09;100891.34;;;23.50;55.17
16120;BME280;12670;53.502;10.252;2023-07-22T11:48:12;100895.06;;;23.10;54.18
16120;BME280;12670;53.502;10.252;2023-07-22T11:51:16;100885.69;;;23.34;53.01
16120;BME280;12670;53.502;10.252;2023-07-22T11:54:22;100880.63;;;22.81;55.00
16120;BME280;12670;53.502;10.252;2023-07-22T11:57:25;100880.09;;;22.97;56.47
16120;BME280;12670;53.502;10.252;2023-07-22T12:00:27;100883.69;;;22.67;56.92
16120;BME280;12670;53.502;10.252;2023-07-22T12:03:31;100877.19;;;22.79;55.05
16120;BME280;12670;53.502;10.252;2023-07-22T12:06:34;100880.00;;;22.58;56.73
16120;BME280;12670;53.502;10.252;2023-07-22T12:09:38;100868.00;;;22.41;56.61
16120;BME280;12670;53.502;10.252;2023-07-22T12:12:43;100875.84;;;22.54;57.29
16120;BME280;12670;53.502;10.252;2023-07-22T12:15:59;100863.53;;;22.30;57.83
16120;BME280;12670;53.502;10.252;2023-07-22T12:19:02;100865.63;;;22.17;58.29
16120;BME280;12670;53.502;10.252;2023-07-22T12:22:05;100860.53;;;22.03;58.37
16120;BME280;12670;53.502;10.252;2023-07-22T12:25:09;100862.69;;;22.09;58.20
16120;BME280;12670;53.502;10.252;2023-07-22T12:28:12;100862.22;;;21.94;58.65
16120;BME280;12670;53.502;10.252;2023-07-22T12:31:15;100855.44;;;21.79;59.22
16120;BME280;12670;53.502;10.252;2023-07-22T12:34:18;100855.25;;;21.71;60.99
16120;BME280;12670;53.502;10.252;2023-07-22T12:37:20;100861.50;;;21.50;58.54
16120;BME280;12670;53.502;10.252;2023-07-22T12:40:25;100862.84;;;21.24;59.38
16120;BME280;12670;53.502;10.252;2023-07-22T12:43:28;100861.25;;;21.00;59.31
16120;BME280;12670;53.502;10.252;2023-07-22T12:46:30;100858.50;;;21.12;60.11
16120;BME280;12670;53.502;10.252;2023-07-22T12:49:33;100865.31;;;20.95;61.94
16120;BME280;12670;53.502;10.252;2023-07-22T12:52:36;100855.59;;;20.92;64.14
16120;BME280;12670;53.502;10.252;2023-07-22T12:55:40;100865.28;;;21.27;65.92
16120;BME280;12670;53.502;10.252;2023-07-22T12:58:42;100873.22;;;21.40;62.78
16120;BME280;12670;53.502;10.252;2023-07-22T13:01:45;100861.41;;;20.88;64.84
16120;BME280;12670;53.502;10.252;2023-07-22T13:04:48;100866.59;;;20.68;65.35
16120;BME280;12670;53.502;10.252;2023-07-22T13:07:50;100865.00;;;20.77;66.79
16120;BME280;12670;53.502;10.252;2023-07-22T13:10:55;100865.59;;;20.69;68.66
16120;BME280;12670;53.502;10.252;2023-07-22T13:13:58;100861.69;;;20.62;68.75
16120;BME280;12670;53.502;10.252;2023-07-22T13:17:01;100868.44;;;20.57;68.84
16120;BME280;12670;53.502;10.252;2023-07-22T13:20:04;100869.56;;;20.65;69.97
16120;BME280;12670;53.502;10.252;2023-07-22T13:23:08;100872.97;;;20.67;69.55
16120;BME280;12670;53.502;10.252;2023-07-22T13:26:12;100876.28;;;20.71;70.11
16120;BME280;12670;53.502;10.252;2023-07-22T13:29:15;100876.75;;;20.76;69.97
16120;BME280;12670;53.502;10.252;2023-07-22T13:32:18;100865.03;;;20.55;70.71
16120;BME280;12670;53.502;10.252;2023-07-22T13:35:21;100865.28;;;20.52;71.97
16120;BME280;12670;53.502;10.252;2023-07-22T13:38:23;100870.53;;;20.42;72.34
16120;BME280;12670;53.502;10.252;2023-07-22T13:41:28;100875.06;;;20.41;76.95
16120;BME280;12670;53.502;10.252;2023-07-22T13:44:31;100873.47;;;20.16;80.67
16120;BME280;12670;53.502;10.252;2023-07-22T13:47:34;100872.75;;;20.26;79.61
16120;BME280;12670;53.502;10.252;2023-07-22T13:50:36;100872.13;;;20.22;80.91
16120;BME280;12670;53.502;10.252;2023-07-22T13:53:42;100882.41;;;20.28;78.00
16120;BME280;12670;53.502;10.252;2023-07-22T13:56:46;100883.69;;;20.46;73.71
16120;BME280;12670;53.502;10.252;2023-07-22T13:59:49;100883.38;;;20.38;72.82
16120;BME280;12670;53.502;10.252;2023-07-22T14:02:52;100878.75;;;20.52;71.12
16120;BME280;12670;53.502;10.252;2023-07-22T14:05:55;100881.69;;;20.37;74.66
16120;BME280;12670;53.502;10.252;2023-07-22T14:08:57;100881.19;;;20.43;72.92
16120;BME280;12670;53.502;10.252;2023-07-22T14:12:02;100886.06;;;20.72;74.48
16120;BME280;12670;53.502;10.252;2023-07-22T14:15:05;100877.22;;;20.81;71.98
16120;BME280;12670;53.502;10.252;2023-07-22T14:18:08;100872.59;;;20.72;71.80
16120;BME280;12670;53.502;10.252;2023-07-22T14:21:11;100868.53;;;20.77;71.04
16120;BME280;12670;53.502;10.252;2023-07-22T14:24:14;100870.47;;;20.87;69.90
16120;BME280;12670;53.502;10.252;2023-07-22T14:27:18;100861.34;;;20.99;72.43
16120;BME280;12670;53.502;10.252;2023-07-22T14:30:21;100869.91;;;20.72;70.62
16120;BME280;12670;53.502;10.252;2023-07-22T14:33:23;100856.84;;;20.99;73.20
16120;BME280;12670;53.502;10.252;2023-07-22T14:36:26;100867.91;;;20.85;73.36
16120;BME280;12670;53.502;10.252;2023-07-22T14:39:29;100864.31;;;20.53;74.13
16120;BME280;12670;53.502;10.252;2023-07-22T14:42:33;100857.69;;;20.45;74.39
16120;BME280;12670;53.502;10.252;2023-07-22T14:45:36;100859.16;;;20.49;74.65
16120;BME280;12670;53.502;10.252;2023-07-22T14:48:39;100857.91;;;20.42;74.71
16120;BME280;12670;53.502;10.252;2023-07-22T14:51:43;100855.72;;;20.25;74.08
16120;BME280;12670;53.502;10.252;2023-07-22T14:54:46;100853.75;;;20.49;78.32
16120;BME280;12670;53.502;10.252;2023-07-22T14:57:50;100848.38;;;20.27;77.46
16120;BME280;12670;53.502;10.252;2023-07-22T15:00:52;100846.78;;;20.36;81.14
16120;BME280;12670;53.502;10.252;2023-07-22T15:03:55;100842.97;;;20.27;78.62
16120;BME280;12670;53.502;10.252;2023-07-22T15:06:58;100845.66;;;20.38;78.65
16120;BME280;12670;53.502;10.252;2023-07-22T15:10:00;100854.50;;;20.29;77.95
16120;BME280;12670;53.502;10.252;2023-07-22T15:13:05;100840.91;;;20.08;81.92
16120;BME280;12670;53.502;10.252;2023-07-22T15:16:07;100837.97;;;20.22;81.72
16120;BME280;12670;53.502;10.252;2023-07-22T15:19:10;100840.06;;;20.19;84.23
16120;BME280;12670;53.502;10.252;2023-07-22T15:22:13;100843.13;;;20.14;85.01
16120;BME280;12670;53.502;10.252;2023-07-22T15:25:15;100851.06;;;20.16;85.54
16120;BME280;12670;53.502;10.252;2023-07-22T15:28:19;100852.06;;;20.26;87.87
16120;BME280;12670;53.502;10.252;2023-07-22T15:31:22;100850.84;;;20.19;86.62
16120;BME280;12670;53.502;10.252;2023-07-22T15:34:27;100846.56;;;19.94;88.59
16120;BME280;12670;53.502;10.252;2023-07-22T15:37:30;100843.75;;;19.95;88.12
16120;BME280;12670;53.502;10.252;2023-07-22T15:40:34;100849.34;;;19.92;87.84
16120;BME280;12670;53.502;10.252;2023-07-22T15:43:39;100838.22;;;19.86;87.10